Houston, Texas
Traffic Map
Current Weather Conditions
Houston, Texas
Few Clouds
Few Clouds
81°
Feels Like: 81°
Wind Chill: 81° Ceiling: Unl
Heat Index: 81° Visibility: 10mi
Dew Point: 59° Wind: 13mph
Humidity: 48% Direction: 170° (S)
Pressure: 30.07in Gusts: 22mph
Raw Report DataKMCJ 292215Z AUTO 17011G19KT 010V030 10SM FEW038 27/15 A3007 RMK AO1
Traffic Incident Summary
Active as of:
Severity:
Category:
InformationThere was an issue retrieving the traffic information for this location. Please try a different location or try again shortly.
Advertisements
Track Severe Weather on mobile